createdAt,value
2023-04-17T00:01:47.691Z,44.92
2023-04-17T00:04:16.107Z,44.98
2023-04-17T00:06:44.382Z,45.04
2023-04-17T00:09:13.908Z,45.09
2023-04-17T00:11:42.314Z,45.28
2023-04-17T00:14:10.542Z,45.26
2023-04-17T00:16:38.987Z,45.53
2023-04-17T00:19:07.230Z,45.64
2023-04-17T00:21:35.469Z,45.93
2023-04-17T00:24:03.743Z,46.09
2023-04-17T00:26:33.297Z,46.33
2023-04-17T00:29:02.869Z,46.34
2023-04-17T00:31:31.484Z,46.47
2023-04-17T00:34:02.076Z,46.57
2023-04-17T00:36:32.694Z,46.53
2023-04-17T00:39:01.433Z,46.50
2023-04-17T00:41:29.690Z,46.82
2023-04-17T00:43:57.960Z,46.96
2023-04-17T00:46:26.167Z,46.83
2023-04-17T00:48:54.411Z,46.84
2023-04-17T00:51:22.746Z,47.13
2023-04-17T00:53:51.076Z,47.29
2023-04-17T00:56:19.258Z,47.42
2023-04-17T00:58:48.129Z,47.36
2023-04-17T01:01:16.524Z,47.51
2023-04-17T01:03:45.828Z,47.39
2023-04-17T01:06:14.249Z,47.31
2023-04-17T01:08:44.006Z,47.50
2023-04-17T01:11:12.871Z,47.56
2023-04-17T01:13:51.558Z,47.88
2023-04-17T01:16:20.718Z,48.22
2023-04-17T01:18:49.286Z,48.07
2023-04-17T01:21:17.588Z,48.12
2023-04-17T01:23:52.488Z,48.24
2023-04-17T01:26:23.486Z,48.03
2023-04-17T01:28:57.486Z,48.48
2023-04-17T01:31:28.014Z,48.55
2023-04-17T01:33:56.769Z,48.87
2023-04-17T01:36:24.960Z,48.79
2023-04-17T01:38:53.144Z,48.50
2023-04-17T01:41:21.360Z,48.72
2023-04-17T01:43:49.653Z,48.87
2023-04-17T01:46:17.981Z,49.05
2023-04-17T01:48:46.262Z,48.84
2023-04-17T01:51:14.488Z,49.28
2023-04-17T01:53:42.880Z,49.66
2023-04-17T01:56:11.336Z,49.76
2023-04-17T01:58:39.592Z,49.83
2023-04-17T02:01:07.830Z,50.11
2023-04-17T02:03:36.270Z,50.07
2023-04-17T02:06:04.759Z,50.02
2023-04-17T02:08:33.067Z,50.05
2023-04-17T02:11:01.260Z,50.79
2023-04-17T02:13:29.652Z,50.59
2023-04-17T02:15:57.972Z,50.79
2023-04-17T02:18:27.329Z,51.21
2023-04-17T02:20:55.476Z,50.88
2023-04-17T02:23:23.704Z,51.43
2023-04-17T02:25:52.477Z,51.82
2023-04-17T02:28:20.709Z,51.83
2023-04-17T02:30:48.926Z,52.09
2023-04-17T02:33:17.187Z,52.61
2023-04-17T02:35:45.483Z,51.90
2023-04-17T02:38:13.804Z,51.97
2023-04-17T02:40:42.102Z,52.11
2023-04-17T02:43:10.409Z,52.65
2023-04-17T02:45:38.630Z,52.34
2023-04-17T02:48:07.249Z,52.62
2023-04-17T02:50:35.522Z,52.88
2023-04-17T02:53:03.771Z,52.59
2023-04-17T02:55:31.987Z,52.75
2023-04-17T02:58:00.140Z,52.55
2023-04-17T03:00:29.923Z,52.96
2023-04-17T03:02:58.340Z,52.88
2023-04-17T03:05:26.799Z,53.14
2023-04-17T03:07:54.957Z,52.97
2023-04-17T03:10:23.119Z,53.18
2023-04-17T03:12:51.554Z,53.05
2023-04-17T03:15:19.782Z,53.22
2023-04-17T03:17:48.362Z,53.02
2023-04-17T03:20:16.875Z,53.42
2023-04-17T03:22:45.085Z,53.30
2023-04-17T03:25:13.577Z,53.59
2023-04-17T03:27:41.751Z,53.00
2023-04-17T03:30:10.528Z,53.16
2023-04-17T03:32:38.892Z,52.97
2023-04-17T03:35:07.333Z,53.66
2023-04-17T03:37:35.562Z,53.27
2023-04-17T03:40:06.261Z,53.53
2023-04-17T03:42:34.475Z,53.52
2023-04-17T03:45:04.175Z,53.22
2023-04-17T03:47:32.413Z,53.47
2023-04-17T03:50:00.699Z,53.68
2023-04-17T03:52:28.880Z,53.41
2023-04-17T03:54:57.718Z,53.85
2023-04-17T03:57:25.900Z,53.45
2023-04-17T03:59:54.097Z,53.70
2023-04-17T04:02:22.614Z,53.83
2023-04-17T04:04:51.253Z,53.95
2023-04-17T04:07:19.520Z,54.84
2023-04-17T04:09:48.079Z,54.66
2023-04-17T04:12:16.382Z,54.89
2023-04-17T04:14:44.625Z,55.39
2023-04-17T04:17:12.838Z,54.97
2023-04-17T04:19:41.307Z,55.39
2023-04-17T04:22:09.613Z,56.05
2023-04-17T04:24:37.920Z,55.81
2023-04-17T04:27:06.295Z,56.18
2023-04-17T04:29:34.845Z,56.79
2023-04-17T04:32:03.170Z,57.71
2023-04-17T04:34:31.507Z,58.11
2023-04-17T04:36:59.944Z,57.87
2023-04-17T04:39:30.715Z,58.33
2023-04-17T04:42:06.589Z,58.99
2023-04-17T04:44:34.777Z,59.55
2023-04-17T04:47:03.121Z,58.64
2023-04-17T04:49:31.477Z,58.56
2023-04-17T04:51:59.725Z,58.99
2023-04-17T04:54:28.045Z,59.41
2023-04-17T04:56:56.509Z,59.33
2023-04-17T04:59:24.951Z,59.38
2023-04-17T05:01:53.219Z,59.20
2023-04-17T05:04:21.541Z,59.19
2023-04-17T05:06:49.780Z,59.35
2023-04-17T05:09:18.170Z,59.32
2023-04-17T05:11:47.121Z,59.67
2023-04-17T05:14:15.346Z,59.33
2023-04-17T05:16:44.073Z,59.25
2023-04-17T05:19:12.870Z,59.36
2023-04-17T05:21:41.166Z,59.21
2023-04-17T05:24:09.439Z,59.51
2023-04-17T05:26:37.628Z,59.17
2023-04-17T05:29:05.932Z,59.14
2023-04-17T05:31:34.147Z,59.29
2023-04-17T05:34:02.332Z,58.96
2023-04-17T05:36:32.416Z,59.64
2023-04-17T05:39:00.628Z,59.99
2023-04-17T05:41:31.621Z,59.35
2023-04-17T05:43:59.854Z,59.73
2023-04-17T05:46:28.148Z,59.74
2023-04-17T05:48:56.368Z,60.10
2023-04-17T05:51:24.581Z,60.13
2023-04-17T05:53:52.774Z,60.08
2023-04-17T05:56:21.160Z,60.01
2023-04-17T05:58:49.348Z,60.18
2023-04-17T06:01:23.218Z,60.23
2023-04-17T06:03:51.926Z,60.00
2023-04-17T06:06:20.226Z,60.54
2023-04-17T06:08:48.427Z,60.07
2023-04-17T06:11:16.765Z,60.73
2023-04-17T06:13:44.935Z,60.60
2023-04-17T06:16:13.115Z,60.88
2023-04-17T06:18:42.316Z,60.97
2023-04-17T06:21:11.006Z,60.61
2023-04-17T06:23:39.221Z,60.99
2023-04-17T06:26:07.424Z,61.05
2023-04-17T06:28:35.585Z,60.94
2023-04-17T06:31:03.795Z,60.93
2023-04-17T06:33:32.051Z,60.84
2023-04-17T06:36:00.193Z,60.64
2023-04-17T06:38:28.331Z,61.24
2023-04-17T06:40:56.501Z,61.16
2023-04-17T06:43:24.852Z,60.83
2023-04-17T06:45:53.162Z,61.25
2023-04-17T06:48:21.470Z,61.06
2023-04-17T06:50:50.204Z,61.06
2023-04-17T06:53:18.372Z,60.80
2023-04-17T06:55:46.553Z,60.96
2023-04-17T06:58:15.042Z,61.13
2023-04-17T07:00:43.216Z,61.20
2023-04-17T07:03:12.038Z,61.45
2023-04-17T07:05:40.307Z,61.35
2023-04-17T07:08:08.487Z,61.91
2023-04-17T07:10:36.760Z,61.74
2023-04-17T07:13:04.921Z,62.07
2023-04-17T07:15:33.207Z,61.67
2023-04-17T07:18:01.597Z,62.17
2023-04-17T07:20:29.877Z,62.06
2023-04-17T07:22:58.173Z,62.09
2023-04-17T07:25:26.485Z,62.22
2023-04-17T07:27:57.713Z,62.24
2023-04-17T07:30:26.144Z,62.02
2023-04-17T07:32:54.462Z,62.31
2023-04-17T07:35:23.308Z,62.30
2023-04-17T07:37:51.632Z,62.32
2023-04-17T07:40:20.252Z,62.70
2023-04-17T07:42:48.482Z,62.63
2023-04-17T07:45:16.913Z,62.46
2023-04-17T07:47:45.148Z,63.04
2023-04-17T07:50:13.770Z,63.12
2023-04-17T07:52:41.989Z,63.41
2023-04-17T07:55:10.566Z,63.33
2023-04-17T07:57:43.345Z,63.54
2023-04-17T08:00:14.838Z,63.47
2023-04-17T08:02:46.812Z,63.28
2023-04-17T08:05:15.244Z,63.93
2023-04-17T08:07:44.195Z,63.61
2023-04-17T08:10:12.480Z,63.87
2023-04-17T08:12:41.187Z,64.21
2023-04-17T08:15:10.267Z,64.18
2023-04-17T08:17:38.579Z,64.00
2023-04-17T08:20:09.198Z,64.04
2023-04-17T08:22:44.350Z,64.63
2023-04-17T08:25:13.671Z,64.55
2023-04-17T08:27:43.322Z,64.71
2023-04-17T08:30:16.230Z,64.39
2023-04-17T08:32:47.531Z,64.62
2023-04-17T08:35:17.978Z,64.58
2023-04-17T08:37:49.181Z,64.77
2023-04-17T08:40:19.439Z,64.76
2023-04-17T08:42:48.583Z,64.67
2023-04-17T08:45:17.015Z,64.77
2023-04-17T08:47:45.304Z,64.70
2023-04-17T08:50:21.117Z,64.85
2023-04-17T08:52:51.243Z,64.83
2023-04-17T08:55:23.124Z,64.93
2023-04-17T08:58:05.022Z,64.62
2023-04-17T09:00:35.423Z,64.93
2023-04-17T09:03:05.885Z,64.72
2023-04-17T09:05:34.671Z,64.76
2023-04-17T09:08:18.585Z,64.95
2023-04-17T09:10:48.450Z,65.28
2023-04-17T09:13:18.893Z,65.13
2023-04-17T09:15:49.057Z,65.15
2023-04-17T09:18:33.919Z,64.77
2023-04-17T09:21:03.193Z,64.86
2023-04-17T09:23:46.320Z,65.00
2023-04-17T09:26:16.564Z,65.30
2023-04-17T09:29:01.224Z,65.06
2023-04-17T09:31:35.391Z,64.99
2023-04-17T09:34:05.121Z,65.02
2023-04-17T09:36:35.531Z,65.20
2023-04-17T09:39:17.757Z,65.30
2023-04-17T09:41:46.360Z,65.49
2023-04-17T09:44:29.443Z,65.72
2023-04-17T09:46:58.620Z,65.30
2023-04-17T09:49:26.829Z,65.37
2023-04-17T09:51:55.294Z,65.77
2023-04-17T09:54:24.441Z,65.31
2023-04-17T09:56:56.513Z,65.70
2023-04-17T09:59:25.805Z,65.28
2023-04-17T10:01:55.070Z,65.45
2023-04-17T10:04:23.907Z,65.50
2023-04-17T10:06:52.198Z,65.67
2023-04-17T10:09:20.546Z,65.35
2023-04-17T10:11:49.355Z,65.54
2023-04-17T10:14:28.847Z,65.36
2023-04-17T10:16:57.330Z,65.27
2023-04-17T10:19:33.815Z,65.54
2023-04-17T10:22:18.829Z,65.29
2023-04-17T10:24:52.732Z,65.64
2023-04-17T10:27:29.388Z,65.36
2023-04-17T10:29:59.211Z,65.02
2023-04-17T10:32:32.155Z,65.14
2023-04-17T10:35:02.657Z,65.22
2023-04-17T10:37:49.308Z,65.52
2023-04-17T10:40:30.498Z,65.21
2023-04-17T10:43:18.677Z,65.32
2023-04-17T10:46:06.849Z,65.41
2023-04-17T10:48:39.188Z,65.25
2023-04-17T10:51:43.302Z,65.18
2023-04-17T10:54:11.843Z,65.16
2023-04-17T10:56:49.110Z,65.30
2023-04-17T10:59:19.833Z,65.30
2023-04-17T11:01:51.764Z,65.51
2023-04-17T11:04:31.300Z,65.71
2023-04-17T11:07:00.227Z,65.77
2023-04-17T11:09:30.298Z,65.60
2023-04-17T11:12:04.662Z,65.53
2023-04-17T11:14:33.162Z,65.76
2023-04-17T11:17:02.675Z,65.76
2023-04-17T11:19:33.363Z,65.96
2023-04-17T11:22:03.445Z,66.01
2023-04-17T11:24:32.984Z,66.39
2023-04-17T11:27:04.185Z,66.32
2023-04-17T11:29:32.392Z,66.10
2023-04-17T11:32:02.068Z,66.10
2023-04-17T11:34:30.430Z,65.69
2023-04-17T11:37:01.088Z,65.81
2023-04-17T11:39:34.376Z,65.71
2023-04-17T11:42:05.927Z,65.99
2023-04-17T11:44:34.159Z,66.12
2023-04-17T11:47:04.271Z,66.13
2023-04-17T11:49:40.354Z,66.10
2023-04-17T11:52:08.637Z,66.13
2023-04-17T11:54:38.563Z,66.31
2023-04-17T11:57:16.395Z,66.17
2023-04-17T11:59:46.275Z,66.20
2023-04-17T12:02:15.903Z,66.46
2023-04-17T12:04:44.336Z,66.51
2023-04-17T12:07:25.318Z,66.82
2023-04-17T12:09:58.429Z,67.01
2023-04-17T12:12:26.585Z,66.76
2023-04-17T12:14:54.920Z,66.96
2023-04-17T12:17:23.182Z,67.00
2023-04-17T12:19:51.798Z,66.99
2023-04-17T12:22:20.079Z,66.79
2023-04-17T12:24:48.410Z,66.94
2023-04-17T12:27:16.936Z,66.80
2023-04-17T12:29:45.316Z,66.88
2023-04-17T12:32:14.081Z,66.97
2023-04-17T12:34:42.367Z,66.95
2023-04-17T12:37:10.670Z,66.90
2023-04-17T12:39:38.777Z,66.82
2023-04-17T12:42:06.929Z,67.02
2023-04-17T12:44:35.140Z,66.55
2023-04-17T12:47:03.400Z,66.37
2023-04-17T12:49:31.603Z,66.30
2023-04-17T12:52:02.475Z,66.59
2023-04-17T12:54:31.583Z,66.33
2023-04-17T12:57:00.074Z,66.39
2023-04-17T12:59:28.239Z,66.75
2023-04-17T13:01:56.599Z,66.08
2023-04-17T13:04:24.907Z,66.04
2023-04-17T13:06:53.227Z,65.86
2023-04-17T13:09:21.394Z,66.08
2023-04-17T13:11:49.546Z,66.07
2023-04-17T13:14:17.757Z,65.99
2023-04-17T13:16:47.290Z,66.13
2023-04-17T13:19:15.677Z,66.25
2023-04-17T13:21:43.950Z,66.35
2023-04-17T13:24:15.376Z,66.14
2023-04-17T13:26:43.828Z,66.22
2023-04-17T13:29:12.397Z,65.90
2023-04-17T13:31:40.862Z,66.16
2023-04-17T13:34:10.809Z,66.31
2023-04-17T13:36:39.408Z,66.10
2023-04-17T13:39:07.676Z,66.14
2023-04-17T13:41:36.087Z,66.12
2023-04-17T13:44:04.476Z,66.27
2023-04-17T13:46:34.297Z,66.04
2023-04-17T13:49:02.538Z,66.44
2023-04-17T13:51:30.828Z,66.38
2023-04-17T13:54:01.958Z,66.34
2023-04-17T13:56:30.237Z,66.23
2023-04-17T13:58:59.255Z,66.28
2023-04-17T14:01:27.722Z,66.50
2023-04-17T14:03:56.027Z,66.59
2023-04-17T14:06:24.313Z,66.34
2023-04-17T14:08:52.509Z,66.37
2023-04-17T14:11:20.729Z,66.09
2023-04-17T14:13:48.992Z,66.13
2023-04-17T14:16:17.301Z,66.19
2023-04-17T14:18:48.814Z,65.89
2023-04-17T14:21:17.958Z,65.91
2023-04-17T14:23:47.685Z,65.83
2023-04-17T14:26:16.152Z,65.56
2023-04-17T14:28:44.291Z,65.57
2023-04-17T14:31:12.497Z,65.39
2023-04-17T14:33:40.808Z,65.56
2023-04-17T14:36:09.370Z,65.35
2023-04-17T14:38:37.720Z,64.97
2023-04-17T14:41:06.201Z,64.91
2023-04-17T14:43:34.438Z,64.62
2023-04-17T14:46:02.624Z,64.75
2023-04-17T14:48:32.701Z,64.55
2023-04-17T14:51:03.006Z,64.38
2023-04-17T14:53:31.248Z,64.56
2023-04-17T14:56:00.875Z,64.39
2023-04-17T14:58:29.055Z,64.19
2023-04-17T15:00:57.312Z,64.24
2023-04-17T15:03:25.904Z,64.22
2023-04-17T15:05:54.799Z,64.07
2023-04-17T15:08:22.972Z,63.98
2023-04-17T15:10:51.717Z,63.81
2023-04-17T15:13:20.008Z,63.88
2023-04-17T15:15:48.533Z,63.67
2023-04-17T15:18:16.823Z,63.80
2023-04-17T15:20:45.039Z,63.63
2023-04-17T15:23:13.297Z,63.54
2023-04-17T15:25:41.543Z,63.69
2023-04-17T15:28:10.125Z,63.46
2023-04-17T15:30:38.409Z,63.04
2023-04-17T15:33:09.237Z,62.68
2023-04-17T15:35:39.137Z,62.25
2023-04-17T15:38:08.601Z,62.06
2023-04-17T15:40:36.817Z,61.67
2023-04-17T15:43:04.994Z,61.99
2023-04-17T15:45:33.260Z,61.26
2023-04-17T15:48:02.436Z,61.33
2023-04-17T15:50:30.797Z,60.84
2023-04-17T15:52:58.976Z,60.39
2023-04-17T15:55:27.237Z,59.92
2023-04-17T15:57:55.508Z,59.73
2023-04-17T16:00:23.795Z,59.10
2023-04-17T16:02:52.873Z,59.10
2023-04-17T16:05:21.793Z,59.15
2023-04-17T16:07:50.030Z,59.01
2023-04-17T16:10:19.712Z,58.95
2023-04-17T16:12:48.322Z,59.01
2023-04-17T16:15:18.580Z,58.90
2023-04-17T16:17:49.221Z,58.94
2023-04-17T16:20:18.050Z,58.76
2023-04-17T16:22:46.256Z,58.94
2023-04-17T16:25:14.484Z,58.60
2023-04-17T16:27:42.750Z,58.41
2023-04-17T16:30:11.912Z,57.48
2023-04-17T16:32:40.216Z,56.96
2023-04-17T16:35:08.802Z,57.33
2023-04-17T16:37:37.158Z,56.72
2023-04-17T16:40:05.845Z,56.01
2023-04-17T16:42:34.555Z,56.11
2023-04-17T16:45:02.810Z,56.24
2023-04-17T16:47:31.788Z,55.50
2023-04-17T16:50:00.005Z,55.91
2023-04-17T16:52:28.220Z,55.67
2023-04-17T16:54:56.489Z,55.06
2023-04-17T16:57:24.723Z,55.27
2023-04-17T16:59:52.914Z,55.30
2023-04-17T17:02:21.619Z,55.41
2023-04-17T17:04:50.373Z,55.55
2023-04-17T17:07:18.518Z,55.06
2023-04-17T17:09:46.867Z,55.13
2023-04-17T17:12:15.125Z,54.86
2023-04-17T17:14:43.297Z,54.78
2023-04-17T17:17:11.531Z,54.64
2023-04-17T17:19:39.711Z,54.78
2023-04-17T17:22:07.934Z,54.62
2023-04-17T17:24:37.024Z,54.02
2023-04-17T17:27:05.299Z,54.10
2023-04-17T17:29:33.691Z,53.92
2023-04-17T17:32:02.030Z,53.79
2023-04-17T17:34:30.578Z,53.73
2023-04-17T17:36:59.592Z,53.55
2023-04-17T17:39:27.791Z,53.10
2023-04-17T17:41:57.260Z,52.86
2023-04-17T17:44:25.609Z,52.89
2023-04-17T17:46:53.805Z,52.58
2023-04-17T17:49:22.046Z,52.48
2023-04-17T17:51:50.239Z,52.28
2023-04-17T17:54:18.406Z,52.94
2023-04-17T17:56:47.088Z,52.14
2023-04-17T17:59:15.233Z,52.93
2023-04-17T18:01:43.471Z,52.46
2023-04-17T18:04:12.248Z,52.15
2023-04-17T18:06:41.832Z,52.66
2023-04-17T18:09:10.122Z,52.91
2023-04-17T18:11:38.902Z,52.47
2023-04-17T18:14:07.477Z,52.58
2023-04-17T18:16:37.057Z,52.60
2023-04-17T18:19:05.866Z,52.09
2023-04-17T18:21:34.624Z,51.70
2023-04-17T18:24:02.919Z,50.88
2023-04-17T18:26:31.210Z,51.69
2023-04-17T18:28:59.407Z,51.57
2023-04-17T18:31:29.028Z,51.49
2023-04-17T18:33:57.409Z,51.80
2023-04-17T18:36:25.584Z,51.65
2023-04-17T18:38:53.873Z,50.65
2023-04-17T18:41:22.332Z,50.57
2023-04-17T18:43:50.554Z,50.92
2023-04-17T18:46:19.478Z,50.85
2023-04-17T18:48:47.986Z,51.36
2023-04-17T18:51:16.325Z,50.75
2023-04-17T18:53:44.609Z,50.79
2023-04-17T18:56:15.687Z,50.76
2023-04-17T18:58:44.021Z,50.68
2023-04-17T19:01:12.293Z,50.62
2023-04-17T19:03:41.144Z,50.96
2023-04-17T19:06:09.545Z,50.48
2023-04-17T19:08:38.142Z,50.41
2023-04-17T19:11:06.874Z,50.60
2023-04-17T19:13:35.051Z,49.96
2023-04-17T19:16:03.325Z,50.45
2023-04-17T19:18:31.599Z,50.02
2023-04-17T19:20:59.748Z,49.63
2023-04-17T19:23:28.013Z,49.78
2023-04-17T19:25:57.169Z,50.14
2023-04-17T19:28:26.317Z,49.58
2023-04-17T19:30:54.600Z,49.44
2023-04-17T19:33:23.820Z,48.73
2023-04-17T19:35:53.150Z,49.67
2023-04-17T19:38:22.233Z,49.30
2023-04-17T19:41:15.346Z,48.13
2023-04-17T19:43:43.908Z,48.29
2023-04-17T19:46:12.227Z,47.80
2023-04-17T19:48:42.983Z,47.32
2023-04-17T19:51:12.286Z,47.00
2023-04-17T19:53:42.636Z,47.04
2023-04-17T19:56:11.599Z,46.18
2023-04-17T19:58:41.079Z,45.79
2023-04-17T20:01:09.423Z,45.86
2023-04-17T20:03:39.982Z,45.98
2023-04-17T20:06:09.136Z,45.10
2023-04-17T20:08:37.511Z,45.23
2023-04-17T20:11:07.079Z,45.38
2023-04-17T20:13:35.375Z,44.15
2023-04-17T20:16:03.773Z,45.29
2023-04-17T20:18:32.499Z,45.04
2023-04-17T20:21:04.247Z,44.81
2023-04-17T20:23:32.509Z,44.05
2023-04-17T20:26:00.698Z,44.84
2023-04-17T20:28:29.937Z,43.69
2023-04-17T20:30:58.257Z,44.66
2023-04-17T20:33:26.621Z,45.13
2023-04-17T20:35:54.858Z,45.01
2023-04-17T20:38:23.091Z,44.56
2023-04-17T20:40:51.361Z,44.28
2023-04-17T20:43:19.833Z,44.60
2023-04-17T20:45:50.102Z,44.66
2023-04-17T20:48:18.547Z,45.10
2023-04-17T20:50:47.400Z,45.19
2023-04-17T20:53:15.595Z,44.95
2023-04-17T20:55:43.769Z,45.12
2023-04-17T20:58:12.042Z,45.44
2023-04-17T21:00:50.615Z,45.23
2023-04-17T21:03:26.837Z,45.24
2023-04-17T21:05:55.696Z,44.93
2023-04-17T21:08:24.026Z,44.72
2023-04-17T21:10:52.476Z,44.69
2023-04-17T21:13:20.635Z,44.78
2023-04-17T21:15:48.830Z,44.67
2023-04-17T21:18:17.084Z,44.25
2023-04-17T21:20:45.396Z,44.25
2023-04-17T21:23:13.757Z,44.24
2023-04-17T21:25:41.956Z,43.83
2023-04-17T21:28:10.167Z,43.83
2023-04-17T21:30:38.397Z,43.77
2023-04-17T21:33:06.676Z,43.75
2023-04-17T21:35:37.269Z,44.38
2023-04-17T21:38:05.951Z,43.19
2023-04-17T21:40:36.793Z,43.60
2023-04-17T21:43:05.933Z,43.28
2023-04-17T21:45:34.167Z,42.25
2023-04-17T21:48:02.487Z,41.98
2023-04-17T21:50:30.759Z,42.45
2023-04-17T21:52:59.018Z,41.73
2023-04-17T21:55:27.312Z,41.88
2023-04-17T21:57:55.484Z,41.86
2023-04-17T22:00:23.735Z,41.29
2023-04-17T22:02:52.261Z,41.59
2023-04-17T22:05:20.597Z,40.99
2023-04-17T22:07:54.758Z,40.55
2023-04-17T22:10:24.682Z,40.93
2023-04-17T22:12:52.948Z,40.10
2023-04-17T22:15:21.315Z,40.19
2023-04-17T22:17:49.537Z,40.35
2023-04-17T22:20:17.989Z,40.13
2023-04-17T22:22:48.135Z,39.86
2023-04-17T22:25:16.449Z,39.89
2023-04-17T22:27:44.642Z,40.25
2023-04-17T22:30:13.130Z,40.32
2023-04-17T22:32:41.467Z,40.16
2023-04-17T22:35:10.197Z,40.16
2023-04-17T22:37:38.402Z,38.57
2023-04-17T22:40:07.344Z,39.91
2023-04-17T22:42:35.604Z,39.93
2023-04-17T22:45:03.843Z,39.73
2023-04-17T22:47:32.109Z,40.33
2023-04-17T22:50:00.675Z,39.81
2023-04-17T22:52:29.068Z,39.92
2023-04-17T22:54:57.294Z,40.20
2023-04-17T22:57:25.841Z,41.14
2023-04-17T22:59:54.063Z,40.97
2023-04-17T23:02:22.382Z,40.93
2023-04-17T23:04:50.665Z,40.66
2023-04-17T23:07:18.830Z,41.29
2023-04-17T23:09:47.510Z,41.72
2023-04-17T23:12:15.760Z,41.89
2023-04-17T23:14:45.051Z,42.13
2023-04-17T23:17:13.466Z,42.36
2023-04-17T23:19:41.700Z,41.67
2023-04-17T23:22:10.684Z,41.75
2023-04-17T23:24:38.948Z,42.11
2023-04-17T23:27:07.221Z,42.60
2023-04-17T23:29:35.468Z,42.60
2023-04-17T23:32:05.332Z,42.46
2023-04-17T23:34:35.508Z,42.77
2023-04-17T23:37:04.245Z,42.52
2023-04-17T23:39:32.414Z,42.48
2023-04-17T23:42:01.423Z,42.58
2023-04-17T23:44:29.649Z,41.84
2023-04-17T23:46:57.919Z,42.46
2023-04-17T23:49:26.264Z,42.40
2023-04-17T23:51:54.414Z,42.06
2023-04-17T23:54:22.694Z,42.01
2023-04-17T23:56:50.941Z,41.85
2023-04-17T23:59:19.271Z,41.93
